sensor_id;sensor_type;location;lat;lon;timestamp;temperature;humidity
11826;DHT22;5970;48.094;11.496;2023-09-18T00:01:51;17.60;99.90
11826;DHT22;5970;48.094;11.496;2023-09-18T00:04:18;17.50;99.90
11826;DHT22;5970;48.094;11.496;2023-09-18T00:06:44;17.50;99.90
11826;DHT22;5970;48.094;11.496;2023-09-18T00:09:11;18.50;99.90
11826;DHT22;5970;48.094;11.496;2023-09-18T00:11:40;17.50;99.90
11826;DHT22;5970;48.094;11.496;2023-09-18T00:14:07;17.50;99.90
11826;DHT22;5970;48.094;11.496;2023-09-18T00:16:34;17.50;99.90
11826;DHT22;5970;48.094;11.496;2023-09-18T00:19:21;17.50;99.90
11826;DHT22;5970;48.094;11.496;2023-09-18T00:21:48;17.40;99.90
11826;DHT22;5970;48.094;11.496;2023-09-18T00:24:15;17.40;99.90
11826;DHT22;5970;48.094;11.496;2023-09-18T00:26:41;17.30;99.90
11826;DHT22;5970;48.094;11.496;2023-09-18T00:29:08;17.20;99.90
11826;DHT22;5970;48.094;11.496;2023-09-18T00:31:35;17.30;99.90
11826;DHT22;5970;48.094;11.496;2023-09-18T00:34:01;17.20;99.90
11826;DHT22;5970;48.094;11.496;2023-09-18T00:36:28;17.20;99.90
11826;DHT22;5970;48.094;11.496;2023-09-18T00:38:54;17.20;99.90
11826;DHT22;5970;48.094;11.496;2023-09-18T00:41:21;17.20;99.90
11826;DHT22;5970;48.094;11.496;2023-09-18T00:43:48;17.20;99.90
11826;DHT22;5970;48.094;11.496;2023-09-18T00:46:14;17.20;99.90
11826;DHT22;5970;48.094;11.496;2023-09-18T00:48:41;17.30;99.90
11826;DHT22;5970;48.094;11.496;2023-09-18T00:51:08;17.40;99.90
11826;DHT22;5970;48.094;11.496;2023-09-18T00:53:35;17.30;99.90
11826;DHT22;5970;48.094;11.496;2023-09-18T00:56:02;17.30;99.90
11826;DHT22;5970;48.094;11.496;2023-09-18T00:58:29;17.30;99.90
11826;DHT22;5970;48.094;11.496;2023-09-18T01:00:55;17.30;99.90
11826;DHT22;5970;48.094;11.496;2023-09-18T01:03:22;17.30;99.90
11826;DHT22;5970;48.094;11.496;2023-09-18T01:05:49;17.30;99.90
11826;DHT22;5970;48.094;11.496;2023-09-18T01:08:16;17.30;99.90
11826;DHT22;5970;48.094;11.496;2023-09-18T01:10:47;17.20;99.90
11826;DHT22;5970;48.094;11.496;2023-09-18T01:13:17;17.30;99.90
11826;DHT22;5970;48.094;11.496;2023-09-18T01:15:52;17.20;99.90
11826;DHT22;5970;48.094;11.496;2023-09-18T01:18:19;17.20;99.90
11826;DHT22;5970;48.094;11.496;2023-09-18T01:20:47;17.10;99.90
11826;DHT22;5970;48.094;11.496;2023-09-18T01:23:13;17.30;99.90
11826;DHT22;5970;48.094;11.496;2023-09-18T01:25:40;17.20;99.90
11826;DHT22;5970;48.094;11.496;2023-09-18T01:28:07;17.20;99.90
11826;DHT22;5970;48.094;11.496;2023-09-18T01:30:34;17.20;99.90
11826;DHT22;5970;48.094;11.496;2023-09-18T01:33:01;17.10;99.90
11826;DHT22;5970;48.094;11.496;2023-09-18T01:35:29;17.10;99.90
11826;DHT22;5970;48.094;11.496;2023-09-18T01:37:56;17.20;99.90
11826;DHT22;5970;48.094;11.496;2023-09-18T01:40:24;17.10;99.90
11826;DHT22;5970;48.094;11.496;2023-09-18T01:42:51;17.30;99.90
11826;DHT22;5970;48.094;11.496;2023-09-18T01:45:18;17.20;99.90
11826;DHT22;5970;48.094;11.496;2023-09-18T01:47:45;17.10;99.90
11826;DHT22;5970;48.094;11.496;2023-09-18T01:50:12;17.10;99.90
11826;DHT22;5970;48.094;11.496;2023-09-18T01:52:39;17.10;99.90
11826;DHT22;5970;48.094;11.496;2023-09-18T01:55:06;17.00;99.90
11826;DHT22;5970;48.094;11.496;2023-09-18T01:57:34;17.00;99.90
11826;DHT22;5970;48.094;11.496;2023-09-18T02:00:00;18.10;99.90
11826;DHT22;5970;48.094;11.496;2023-09-18T02:02:28;17.00;99.90
11826;DHT22;5970;48.094;11.496;2023-09-18T02:05:09;16.90;99.90
11826;DHT22;5970;48.094;11.496;2023-09-18T02:07:36;16.90;99.90
11826;DHT22;5970;48.094;11.496;2023-09-18T02:10:03;17.00;99.90
11826;DHT22;5970;48.094;11.496;2023-09-18T02:12:30;16.80;99.90
11826;DHT22;5970;48.094;11.496;2023-09-18T02:14:57;16.90;99.90
11826;DHT22;5970;48.094;11.496;2023-09-18T02:17:25;16.80;99.90
11826;DHT22;5970;48.094;11.496;2023-09-18T02:19:52;16.70;99.90
11826;DHT22;5970;48.094;11.496;2023-09-18T02:22:18;16.70;99.90
11826;DHT22;5970;48.094;11.496;2023-09-18T02:24:45;16.80;99.90
11826;DHT22;5970;48.094;11.496;2023-09-18T02:27:12;16.70;99.90
11826;DHT22;5970;48.094;11.496;2023-09-18T02:29:39;16.70;99.90
11826;DHT22;5970;48.094;11.496;2023-09-18T02:32:06;16.70;99.90
11826;DHT22;5970;48.094;11.496;2023-09-18T02:34:33;16.70;99.90
11826;DHT22;5970;48.094;11.496;2023-09-18T02:37:00;16.50;99.90
11826;DHT22;5970;48.094;11.496;2023-09-18T02:39:26;16.60;99.90
11826;DHT22;5970;48.094;11.496;2023-09-18T02:41:53;16.70;99.90
11826;DHT22;5970;48.094;11.496;2023-09-18T02:44:20;16.50;99.90
11826;DHT22;5970;48.094;11.496;2023-09-18T02:46:47;16.50;99.90
11826;DHT22;5970;48.094;11.496;2023-09-18T02:49:13;17.20;99.90
11826;DHT22;5970;48.094;11.496;2023-09-18T02:51:40;16.60;99.90
11826;DHT22;5970;48.094;11.496;2023-09-18T02:54:07;16.40;99.90
11826;DHT22;5970;48.094;11.496;2023-09-18T02:56:33;16.40;99.90
11826;DHT22;5970;48.094;11.496;2023-09-18T02:59:00;16.40;99.90
11826;DHT22;5970;48.094;11.496;2023-09-18T03:01:27;16.40;99.90
11826;DHT22;5970;48.094;11.496;2023-09-18T03:03:53;16.40;99.90
11826;DHT22;5970;48.094;11.496;2023-09-18T03:06:20;16.30;99.90
11826;DHT22;5970;48.094;11.496;2023-09-18T03:08:47;16.40;99.90
11826;DHT22;5970;48.094;11.496;2023-09-18T03:11:14;16.30;99.90
11826;DHT22;5970;48.094;11.496;2023-09-18T03:13:44;16.30;99.90
11826;DHT22;5970;48.094;11.496;2023-09-18T03:16:14;16.30;99.90
11826;DHT22;5970;48.094;11.496;2023-09-18T03:18:41;16.20;99.90
11826;DHT22;5970;48.094;11.496;2023-09-18T03:21:07;16.30;99.90
11826;DHT22;5970;48.094;11.496;2023-09-18T03:23:34;16.20;99.90
11826;DHT22;5970;48.094;11.496;2023-09-18T03:26:01;16.30;99.90
11826;DHT22;5970;48.094;11.496;2023-09-18T03:28:28;16.40;99.90
11826;DHT22;5970;48.094;11.496;2023-09-18T03:30:55;16.30;99.90
11826;DHT22;5970;48.094;11.496;2023-09-18T03:33:21;16.20;99.90
11826;DHT22;5970;48.094;11.496;2023-09-18T03:35:49;16.30;99.90
11826;DHT22;5970;48.094;11.496;2023-09-18T03:38:16;16.20;99.90
11826;DHT22;5970;48.094;11.496;2023-09-18T03:40:43;16.60;99.90
11826;DHT22;5970;48.094;11.496;2023-09-18T03:43:10;16.10;99.90
11826;DHT22;5970;48.094;11.496;2023-09-18T03:45:37;16.10;99.90
11826;DHT22;5970;48.094;11.496;2023-09-18T03:48:04;16.40;99.90
11826;DHT22;5970;48.094;11.496;2023-09-18T03:50:30;16.00;99.90
11826;DHT22;5970;48.094;11.496;2023-09-18T03:52:57;16.00;99.90
11826;DHT22;5970;48.094;11.496;2023-09-18T03:55:24;16.00;99.90
11826;DHT22;5970;48.094;11.496;2023-09-18T03:57:52;15.90;99.90
11826;DHT22;5970;48.094;11.496;2023-09-18T04:00:19;15.90;99.90
11826;DHT22;5970;48.094;11.496;2023-09-18T04:02:45;15.90;99.90
11826;DHT22;5970;48.094;11.496;2023-09-18T04:05:12;15.90;99.90
11826;DHT22;5970;48.094;11.496;2023-09-18T04:07:39;16.50;99.90
11826;DHT22;5970;48.094;11.496;2023-09-18T04:10:05;15.90;99.90
11826;DHT22;5970;48.094;11.496;2023-09-18T04:12:32;15.80;99.90
11826;DHT22;5970;48.094;11.496;2023-09-18T04:14:59;15.80;99.90
11826;DHT22;5970;48.094;11.496;2023-09-18T04:17:26;15.80;99.90
11826;DHT22;5970;48.094;11.496;2023-09-18T04:19:53;16.30;99.90
11826;DHT22;5970;48.094;11.496;2023-09-18T04:22:20;15.70;99.90
11826;DHT22;5970;48.094;11.496;2023-09-18T04:24:47;15.70;99.90
11826;DHT22;5970;48.094;11.496;2023-09-18T04:27:15;15.60;99.90
11826;DHT22;5970;48.094;11.496;2023-09-18T04:29:42;15.70;99.90
11826;DHT22;5970;48.094;11.496;2023-09-18T04:32:08;15.70;99.90
11826;DHT22;5970;48.094;11.496;2023-09-18T04:34:35;15.60;99.90
11826;DHT22;5970;48.094;11.496;2023-09-18T04:37:02;15.60;99.90
11826;DHT22;5970;48.094;11.496;2023-09-18T04:39:30;15.50;99.90
11826;DHT22;5970;48.094;11.496;2023-09-18T04:41:56;17.00;99.90
11826;DHT22;5970;48.094;11.496;2023-09-18T04:44:23;15.40;99.90
11826;DHT22;5970;48.094;11.496;2023-09-18T04:46:50;15.50;99.90
11826;DHT22;5970;48.094;11.496;2023-09-18T04:49:17;15.50;99.90
11826;DHT22;5970;48.094;11.496;2023-09-18T04:51:43;16.00;99.90
11826;DHT22;5970;48.094;11.496;2023-09-18T04:54:10;15.80;99.90
11826;DHT22;5970;48.094;11.496;2023-09-18T04:56:37;15.50;99.90
11826;DHT22;5970;48.094;11.496;2023-09-18T04:59:04;15.60;99.90
11826;DHT22;5970;48.094;11.496;2023-09-18T05:01:31;16.30;99.90
11826;DHT22;5970;48.094;11.496;2023-09-18T05:03:58;15.40;99.90
11826;DHT22;5970;48.094;11.496;2023-09-18T05:06:25;15.40;99.90
11826;DHT22;5970;48.094;11.496;2023-09-18T05:08:52;15.40;99.90
11826;DHT22;5970;48.094;11.496;2023-09-18T05:11:21;15.50;99.90
11826;DHT22;5970;48.094;11.496;2023-09-18T05:13:48;15.50;99.90
11826;DHT22;5970;48.094;11.496;2023-09-18T05:16:15;15.50;99.90
11826;DHT22;5970;48.094;11.496;2023-09-18T05:18:42;15.50;99.90
11826;DHT22;5970;48.094;11.496;2023-09-18T05:21:10;15.60;99.90
11826;DHT22;5970;48.094;11.496;2023-09-18T05:23:36;15.60;99.90
11826;DHT22;5970;48.094;11.496;2023-09-18T05:26:03;15.70;99.90
11826;DHT22;5970;48.094;11.496;2023-09-18T05:28:30;15.70;99.90
11826;DHT22;5970;48.094;11.496;2023-09-18T05:30:57;16.80;99.90
11826;DHT22;5970;48.094;11.496;2023-09-18T05:33:23;16.90;99.90
11826;DHT22;5970;48.094;11.496;2023-09-18T05:35:50;16.50;99.90
11826;DHT22;5970;48.094;11.496;2023-09-18T05:38:17;16.00;99.90
11826;DHT22;5970;48.094;11.496;2023-09-18T05:40:44;16.10;99.90
11826;DHT22;5970;48.094;11.496;2023-09-18T05:43:11;16.20;99.90
11826;DHT22;5970;48.094;11.496;2023-09-18T05:45:38;16.30;99.90
11826;DHT22;5970;48.094;11.496;2023-09-18T05:48:06;16.40;99.90
11826;DHT22;5970;48.094;11.496;2023-09-18T05:50:34;16.50;99.90
11826;DHT22;5970;48.094;11.496;2023-09-18T05:53:04;16.70;99.90
11826;DHT22;5970;48.094;11.496;2023-09-18T05:55:31;16.80;99.90
11826;DHT22;5970;48.094;11.496;2023-09-18T05:57:58;16.90;99.90
11826;DHT22;5970;48.094;11.496;2023-09-18T06:00:25;17.10;99.90
11826;DHT22;5970;48.094;11.496;2023-09-18T06:02:52;17.20;99.90
11826;DHT22;5970;48.094;11.496;2023-09-18T06:05:19;17.30;99.90
11826;DHT22;5970;48.094;11.496;2023-09-18T06:07:49;17.40;99.90
11826;DHT22;5970;48.094;11.496;2023-09-18T06:10:17;17.60;99.90
11826;DHT22;5970;48.094;11.496;2023-09-18T06:12:44;17.70;99.90
11826;DHT22;5970;48.094;11.496;2023-09-18T06:15:11;18.50;99.90
11826;DHT22;5970;48.094;11.496;2023-09-18T06:17:39;18.20;99.90
11826;DHT22;5970;48.094;11.496;2023-09-18T06:20:07;18.10;99.90
11826;DHT22;5970;48.094;11.496;2023-09-18T06:22:37;18.30;99.90
11826;DHT22;5970;48.094;11.496;2023-09-18T06:25:05;18.50;99.90
11826;DHT22;5970;48.094;11.496;2023-09-18T06:27:35;18.60;99.90
11826;DHT22;5970;48.094;11.496;2023-09-18T06:30:03;18.60;99.90
11826;DHT22;5970;48.094;11.496;2023-09-18T06:32:30;18.70;99.90
11826;DHT22;5970;48.094;11.496;2023-09-18T06:34:57;19.10;99.90
11826;DHT22;5970;48.094;11.496;2023-09-18T06:37:24;18.80;99.90
11826;DHT22;5970;48.094;11.496;2023-09-18T06:39:51;19.30;99.90
11826;DHT22;5970;48.094;11.496;2023-09-18T06:42:18;18.40;99.90
11826;DHT22;5970;48.094;11.496;2023-09-18T06:44:45;19.10;99.90
11826;DHT22;5970;48.094;11.496;2023-09-18T06:47:11;19.10;99.90
11826;DHT22;5970;48.094;11.496;2023-09-18T06:49:38;19.20;99.90
11826;DHT22;5970;48.094;11.496;2023-09-18T06:52:05;19.50;99.90
11826;DHT22;5970;48.094;11.496;2023-09-18T06:54:32;19.20;99.90
11826;DHT22;5970;48.094;11.496;2023-09-18T06:56:59;19.30;99.90
11826;DHT22;5970;48.094;11.496;2023-09-18T06:59:26;19.00;99.90
11826;DHT22;5970;48.094;11.496;2023-09-18T07:01:56;19.00;99.90
11826;DHT22;5970;48.094;11.496;2023-09-18T07:04:23;19.10;99.90
11826;DHT22;5970;48.094;11.496;2023-09-18T07:06:50;19.10;99.90
11826;DHT22;5970;48.094;11.496;2023-09-18T07:09:18;19.10;99.90
11826;DHT22;5970;48.094;11.496;2023-09-18T07:11:45;19.40;99.90
11826;DHT22;5970;48.094;11.496;2023-09-18T07:14:11;19.50;99.90
11826;DHT22;5970;48.094;11.496;2023-09-18T07:16:38;19.80;99.90
11826;DHT22;5970;48.094;11.496;2023-09-18T07:19:05;20.00;99.90
11826;DHT22;5970;48.094;11.496;2023-09-18T07:21:31;20.40;99.90
11826;DHT22;5970;48.094;11.496;2023-09-18T07:23:58;20.70;99.90
11826;DHT22;5970;48.094;11.496;2023-09-18T07:26:25;21.10;99.90
11826;DHT22;5970;48.094;11.496;2023-09-18T07:28:52;21.40;99.90
11826;DHT22;5970;48.094;11.496;2023-09-18T07:31:19;21.60;99.90
11826;DHT22;5970;48.094;11.496;2023-09-18T07:33:46;21.80;99.90
11826;DHT22;5970;48.094;11.496;2023-09-18T07:36:13;22.00;99.90
11826;DHT22;5970;48.094;11.496;2023-09-18T07:38:41;22.20;99.90
11826;DHT22;5970;48.094;11.496;2023-09-18T07:41:11;22.10;99.90
11826;DHT22;5970;48.094;11.496;2023-09-18T07:43:38;22.20;99.90
11826;DHT22;5970;48.094;11.496;2023-09-18T07:46:06;22.40;99.90
11826;DHT22;5970;48.094;11.496;2023-09-18T07:48:33;22.50;99.90
11826;DHT22;5970;48.094;11.496;2023-09-18T07:51:00;22.60;99.90
11826;DHT22;5970;48.094;11.496;2023-09-18T07:53:27;22.60;99.90
11826;DHT22;5970;48.094;11.496;2023-09-18T07:55:57;22.90;99.90
11826;DHT22;5970;48.094;11.496;2023-09-18T07:58:26;23.10;99.90
11826;DHT22;5970;48.094;11.496;2023-09-18T08:00:57;23.40;99.90
11826;DHT22;5970;48.094;11.496;2023-09-18T08:03:24;23.70;99.90
11826;DHT22;5970;48.094;11.496;2023-09-18T08:05:52;24.00;99.30
11826;DHT22;5970;48.094;11.496;2023-09-18T08:08:19;24.30;98.50
11826;DHT22;5970;48.094;11.496;2023-09-18T08:10:46;24.40;98.20
11826;DHT22;5970;48.094;11.496;2023-09-18T08:13:13;24.20;97.60
11826;DHT22;5970;48.094;11.496;2023-09-18T08:15:40;24.30;98.10
11826;DHT22;5970;48.094;11.496;2023-09-18T08:18:07;24.10;97.80
11826;DHT22;5970;48.094;11.496;2023-09-18T08:20:34;23.00;97.40
11826;DHT22;5970;48.094;11.496;2023-09-18T08:23:03;23.80;97.80
11826;DHT22;5970;48.094;11.496;2023-09-18T08:25:32;23.70;97.90
11826;DHT22;5970;48.094;11.496;2023-09-18T08:27:58;23.40;97.90
11826;DHT22;5970;48.094;11.496;2023-09-18T08:30:25;23.30;98.00
11826;DHT22;5970;48.094;11.496;2023-09-18T08:32:52;23.30;98.30
11826;DHT22;5970;48.094;11.496;2023-09-18T08:35:19;23.10;98.40
11826;DHT22;5970;48.094;11.496;2023-09-18T08:37:45;23.10;98.90
11826;DHT22;5970;48.094;11.496;2023-09-18T08:40:12;23.10;98.60
11826;DHT22;5970;48.094;11.496;2023-09-18T08:42:44;22.80;98.20
11826;DHT22;5970;48.094;11.496;2023-09-18T08:45:12;22.80;98.40
11826;DHT22;5970;48.094;11.496;2023-09-18T08:47:41;22.70;98.30
11826;DHT22;5970;48.094;11.496;2023-09-18T08:50:08;22.70;98.30
11826;DHT22;5970;48.094;11.496;2023-09-18T08:52:36;22.70;98.80
11826;DHT22;5970;48.094;11.496;2023-09-18T08:55:03;22.60;98.70
11826;DHT22;5970;48.094;11.496;2023-09-18T08:57:30;22.40;98.90
11826;DHT22;5970;48.094;11.496;2023-09-18T08:59:58;22.60;99.20
11826;DHT22;5970;48.094;11.496;2023-09-18T09:02:28;22.70;99.20
11826;DHT22;5970;48.094;11.496;2023-09-18T09:04:55;22.70;98.80
11826;DHT22;5970;48.094;11.496;2023-09-18T09:07:21;22.50;99.00
11826;DHT22;5970;48.094;11.496;2023-09-18T09:09:48;22.50;99.40
11826;DHT22;5970;48.094;11.496;2023-09-18T09:12:15;22.50;99.00
11826;DHT22;5970;48.094;11.496;2023-09-18T09:14:46;22.20;99.30
11826;DHT22;5970;48.094;11.496;2023-09-18T09:17:28;22.10;99.50
11826;DHT22;5970;48.094;11.496;2023-09-18T09:19:57;22.30;99.50
11826;DHT22;5970;48.094;11.496;2023-09-18T09:22:34;22.10;99.50
11826;DHT22;5970;48.094;11.496;2023-09-18T09:25:00;22.40;99.90
11826;DHT22;5970;48.094;11.496;2023-09-18T09:27:27;22.60;99.30
11826;DHT22;5970;48.094;11.496;2023-09-18T09:30:00;22.80;99.60
11826;DHT22;5970;48.094;11.496;2023-09-18T09:32:29;23.20;99.50
11826;DHT22;5970;48.094;11.496;2023-09-18T09:34:58;23.40;98.10
11826;DHT22;5970;48.094;11.496;2023-09-18T09:37:29;23.70;98.00
11826;DHT22;5970;48.094;11.496;2023-09-18T09:39:57;23.80;97.80
11826;DHT22;5970;48.094;11.496;2023-09-18T09:42:39;24.30;97.70
11826;DHT22;5970;48.094;11.496;2023-09-18T09:45:09;24.30;97.50
11826;DHT22;5970;48.094;11.496;2023-09-18T09:47:38;24.10;97.20
11826;DHT22;5970;48.094;11.496;2023-09-18T09:50:05;24.10;97.00
11826;DHT22;5970;48.094;11.496;2023-09-18T09:52:33;24.10;97.30
11826;DHT22;5970;48.094;11.496;2023-09-18T09:55:00;24.30;97.00
11826;DHT22;5970;48.094;11.496;2023-09-18T09:57:26;24.50;97.00
11826;DHT22;5970;48.094;11.496;2023-09-18T09:59:53;24.50;96.40
11826;DHT22;5970;48.094;11.496;2023-09-18T10:02:33;24.30;96.50
11826;DHT22;5970;48.094;11.496;2023-09-18T10:05:01;24.40;96.80
11826;DHT22;5970;48.094;11.496;2023-09-18T10:07:28;24.20;96.90
11826;DHT22;5970;48.094;11.496;2023-09-18T10:09:54;24.30;96.70
11826;DHT22;5970;48.094;11.496;2023-09-18T10:12:21;24.10;96.70
11826;DHT22;5970;48.094;11.496;2023-09-18T10:14:48;24.30;96.60
11826;DHT22;5970;48.094;11.496;2023-09-18T10:17:28;24.40;96.30
11826;DHT22;5970;48.094;11.496;2023-09-18T10:22:37;24.60;96.20
11826;DHT22;5970;48.094;11.496;2023-09-18T10:25:15;24.50;96.50
11826;DHT22;5970;48.094;11.496;2023-09-18T10:27:49;24.70;96.80
11826;DHT22;5970;48.094;11.496;2023-09-18T10:30:16;24.70;96.30
11826;DHT22;5970;48.094;11.496;2023-09-18T10:32:45;24.60;96.30
11826;DHT22;5970;48.094;11.496;2023-09-18T10:35:12;24.50;96.40
11826;DHT22;5970;48.094;11.496;2023-09-18T10:37:40;24.30;96.00
11826;DHT22;5970;48.094;11.496;2023-09-18T10:40:08;24.40;95.80
11826;DHT22;5970;48.094;11.496;2023-09-18T10:42:37;24.40;95.90
11826;DHT22;5970;48.094;11.496;2023-09-18T10:45:04;24.40;96.10
11826;DHT22;5970;48.094;11.496;2023-09-18T10:47:32;24.10;95.70
11826;DHT22;5970;48.094;11.496;2023-09-18T10:49:59;24.00;96.60
11826;DHT22;5970;48.094;11.496;2023-09-18T10:52:26;23.90;96.40
11826;DHT22;5970;48.094;11.496;2023-09-18T10:54:53;23.80;96.50
11826;DHT22;5970;48.094;11.496;2023-09-18T10:57:20;24.00;96.80
11826;DHT22;5970;48.094;11.496;2023-09-18T10:59:49;24.20;97.30
11826;DHT22;5970;48.094;11.496;2023-09-18T11:02:16;24.40;96.60
11826;DHT22;5970;48.094;11.496;2023-09-18T11:04:44;24.20;96.40
11826;DHT22;5970;48.094;11.496;2023-09-18T11:07:20;24.20;96.60
11826;DHT22;5970;48.094;11.496;2023-09-18T11:09:47;24.30;96.90
11826;DHT22;5970;48.094;11.496;2023-09-18T11:12:15;24.40;96.50
11826;DHT22;5970;48.094;11.496;2023-09-18T11:27:57;23.50;96.50
11826;DHT22;5970;48.094;11.496;2023-09-18T11:30:24;23.30;96.60
11826;DHT22;5970;48.094;11.496;2023-09-18T11:32:51;23.10;96.50
11826;DHT22;5970;48.094;11.496;2023-09-18T11:35:18;22.80;97.00
11826;DHT22;5970;48.094;11.496;2023-09-18T11:37:45;22.60;97.10
11826;DHT22;5970;48.094;11.496;2023-09-18T11:40:30;22.70;96.90
11826;DHT22;5970;48.094;11.496;2023-09-18T11:43:20;22.30;97.30
11826;DHT22;5970;48.094;11.496;2023-09-18T11:45:53;22.40;97.40
11826;DHT22;5970;48.094;11.496;2023-09-18T11:48:21;21.90;97.70
11826;DHT22;5970;48.094;11.496;2023-09-18T11:50:51;21.80;98.20
11826;DHT22;5970;48.094;11.496;2023-09-18T11:53:18;21.70;98.40
11826;DHT22;5970;48.094;11.496;2023-09-18T11:55:45;21.60;98.60
11826;DHT22;5970;48.094;11.496;2023-09-18T11:58:13;21.20;99.20
11826;DHT22;5970;48.094;11.496;2023-09-18T12:00:40;21.20;99.70
11826;DHT22;5970;48.094;11.496;2023-09-18T12:03:13;21.20;99.90
11826;DHT22;5970;48.094;11.496;2023-09-18T12:05:43;21.20;99.90
11826;DHT22;5970;48.094;11.496;2023-09-18T12:08:11;21.20;99.90
11826;DHT22;5970;48.094;11.496;2023-09-18T12:10:38;21.30;99.90
11826;DHT22;5970;48.094;11.496;2023-09-18T12:13:05;21.00;99.90
11826;DHT22;5970;48.094;11.496;2023-09-18T12:15:33;20.70;99.90
11826;DHT22;5970;48.094;11.496;2023-09-18T12:18:06;20.30;99.90
11826;DHT22;5970;48.094;11.496;2023-09-18T12:20:34;20.00;99.90
11826;DHT22;5970;48.094;11.496;2023-09-18T12:23:06;19.80;99.90
11826;DHT22;5970;48.094;11.496;2023-09-18T12:25:33;19.80;99.90
11826;DHT22;5970;48.094;11.496;2023-09-18T12:28:00;19.60;99.90
11826;DHT22;5970;48.094;11.496;2023-09-18T12:30:27;19.40;99.90
11826;DHT22;5970;48.094;11.496;2023-09-18T12:32:57;19.30;99.90
11826;DHT22;5970;48.094;11.496;2023-09-18T12:35:24;19.30;99.90
11826;DHT22;5970;48.094;11.496;2023-09-18T12:37:59;19.20;99.90
11826;DHT22;5970;48.094;11.496;2023-09-18T12:40:27;18.90;99.90
11826;DHT22;5970;48.094;11.496;2023-09-18T12:42:55;18.80;99.90
11826;DHT22;5970;48.094;11.496;2023-09-18T12:45:22;18.80;99.90
11826;DHT22;5970;48.094;11.496;2023-09-18T12:47:50;18.80;99.90
11826;DHT22;5970;48.094;11.496;2023-09-18T12:50:17;18.60;99.90
11826;DHT22;5970;48.094;11.496;2023-09-18T12:52:44;18.70;99.90
11826;DHT22;5970;48.094;11.496;2023-09-18T12:55:21;18.60;99.90
11826;DHT22;5970;48.094;11.496;2023-09-18T12:57:48;18.60;99.90
11826;DHT22;5970;48.094;11.496;2023-09-18T13:00:17;18.60;99.90
11826;DHT22;5970;48.094;11.496;2023-09-18T13:02:46;18.40;99.90
11826;DHT22;5970;48.094;11.496;2023-09-18T13:05:18;18.20;99.90
11826;DHT22;5970;48.094;11.496;2023-09-18T13:10:13;18.30;99.90
11826;DHT22;5970;48.094;11.496;2023-09-18T13:12:42;18.40;99.90
11826;DHT22;5970;48.094;11.496;2023-09-18T13:15:09;18.70;99.90
11826;DHT22;5970;48.094;11.496;2023-09-18T13:17:42;18.00;99.90
11826;DHT22;5970;48.094;11.496;2023-09-18T13:20:20;17.90;99.90
11826;DHT22;5970;48.094;11.496;2023-09-18T13:22:53;17.80;99.90
11826;DHT22;5970;48.094;11.496;2023-09-18T13:25:21;17.90;99.90
11826;DHT22;5970;48.094;11.496;2023-09-18T13:27:49;17.90;99.90
11826;DHT22;5970;48.094;11.496;2023-09-18T13:30:16;17.90;99.90
11826;DHT22;5970;48.094;11.496;2023-09-18T13:32:47;17.80;99.90
11826;DHT22;5970;48.094;11.496;2023-09-18T13:35:18;17.90;99.90
11826;DHT22;5970;48.094;11.496;2023-09-18T13:37:45;18.50;99.90
11826;DHT22;5970;48.094;11.496;2023-09-18T13:40:12;18.10;99.90
11826;DHT22;5970;48.094;11.496;2023-09-18T13:42:39;18.20;99.90
11826;DHT22;5970;48.094;11.496;2023-09-18T13:45:06;18.30;99.90
11826;DHT22;5970;48.094;11.496;2023-09-18T13:47:33;18.30;99.90
11826;DHT22;5970;48.094;11.496;2023-09-18T13:50:01;18.30;99.90
11826;DHT22;5970;48.094;11.496;2023-09-18T13:52:29;18.20;99.90
11826;DHT22;5970;48.094;11.496;2023-09-18T13:54:56;18.30;99.90
11826;DHT22;5970;48.094;11.496;2023-09-18T13:57:22;18.50;99.90
11826;DHT22;5970;48.094;11.496;2023-09-18T13:59:51;18.50;99.90
11826;DHT22;5970;48.094;11.496;2023-09-18T14:02:18;18.90;99.90
11826;DHT22;5970;48.094;11.496;2023-09-18T14:04:45;19.20;99.90
11826;DHT22;5970;48.094;11.496;2023-09-18T14:07:12;19.40;99.90
11826;DHT22;5970;48.094;11.496;2023-09-18T14:09:38;19.90;99.90
11826;DHT22;5970;48.094;11.496;2023-09-18T14:12:05;20.80;99.90
11826;DHT22;5970;48.094;11.496;2023-09-18T14:14:35;21.40;99.90
11826;DHT22;5970;48.094;11.496;2023-09-18T14:17:02;22.00;99.90
11826;DHT22;5970;48.094;11.496;2023-09-18T14:19:30;22.20;99.90
11826;DHT22;5970;48.094;11.496;2023-09-18T14:21:57;22.50;99.90
11826;DHT22;5970;48.094;11.496;2023-09-18T14:24:24;23.00;99.90
11826;DHT22;5970;48.094;11.496;2023-09-18T14:26:52;23.20;99.90
11826;DHT22;5970;48.094;11.496;2023-09-18T14:29:19;23.60;99.90
11826;DHT22;5970;48.094;11.496;2023-09-18T14:31:46;23.60;99.90
11826;DHT22;5970;48.094;11.496;2023-09-18T14:34:13;23.50;99.90
11826;DHT22;5970;48.094;11.496;2023-09-18T14:36:40;23.40;99.90
11826;DHT22;5970;48.094;11.496;2023-09-18T14:39:06;23.10;99.90
11826;DHT22;5970;48.094;11.496;2023-09-18T14:41:36;22.70;99.90
11826;DHT22;5970;48.094;11.496;2023-09-18T14:44:04;22.30;99.90
11826;DHT22;5970;48.094;11.496;2023-09-18T14:46:31;22.00;99.90
11826;DHT22;5970;48.094;11.496;2023-09-18T14:49:00;21.90;99.90
11826;DHT22;5970;48.094;11.496;2023-09-18T14:51:27;21.70;99.90
11826;DHT22;5970;48.094;11.496;2023-09-18T14:53:57;21.40;99.90
11826;DHT22;5970;48.094;11.496;2023-09-18T14:56:24;21.30;99.90
11826;DHT22;5970;48.094;11.496;2023-09-18T14:58:51;21.10;99.90
11826;DHT22;5970;48.094;11.496;2023-09-18T15:01:18;21.10;99.90
11826;DHT22;5970;48.094;11.496;2023-09-18T15:03:45;21.10;99.90
11826;DHT22;5970;48.094;11.496;2023-09-18T15:06:12;20.90;99.90
11826;DHT22;5970;48.094;11.496;2023-09-18T15:08:39;20.90;99.90
11826;DHT22;5970;48.094;11.496;2023-09-18T15:11:05;20.80;99.90
11826;DHT22;5970;48.094;11.496;2023-09-18T15:13:33;20.70;99.90
11826;DHT22;5970;48.094;11.496;2023-09-18T15:16:01;20.50;99.90
11826;DHT22;5970;48.094;11.496;2023-09-18T15:18:28;20.40;99.90
11826;DHT22;5970;48.094;11.496;2023-09-18T15:20:55;20.40;99.90
11826;DHT22;5970;48.094;11.496;2023-09-18T15:23:22;20.20;99.90
11826;DHT22;5970;48.094;11.496;2023-09-18T15:25:50;20.10;99.90
11826;DHT22;5970;48.094;11.496;2023-09-18T15:28:17;20.10;99.90
11826;DHT22;5970;48.094;11.496;2023-09-18T15:30:47;20.00;99.90
11826;DHT22;5970;48.094;11.496;2023-09-18T15:33:14;19.90;99.90
11826;DHT22;5970;48.094;11.496;2023-09-18T15:35:44;19.80;99.90
11826;DHT22;5970;48.094;11.496;2023-09-18T15:38:10;19.70;99.90
11826;DHT22;5970;48.094;11.496;2023-09-18T15:40:37;19.50;99.90
11826;DHT22;5970;48.094;11.496;2023-09-18T15:43:04;19.50;99.90
11826;DHT22;5970;48.094;11.496;2023-09-18T15:45:31;19.50;99.90
11826;DHT22;5970;48.094;11.496;2023-09-18T15:47:58;19.30;99.90
11826;DHT22;5970;48.094;11.496;2023-09-18T15:50:25;19.30;99.90
11826;DHT22;5970;48.094;11.496;2023-09-18T15:52:52;19.20;99.90